createdAt,value
2022-10-02T00:01:09.880Z,17.50
2022-10-02T00:03:21.241Z,17.40
2022-10-02T00:05:41.818Z,17.40
2022-10-02T00:07:46.024Z,17.40
2022-10-02T00:09:49.382Z,17.50
2022-10-02T00:11:57.954Z,17.50
2022-10-02T00:14:01.938Z,17.40
2022-10-02T00:16:05.012Z,17.50
2022-10-02T00:18:12.371Z,17.50
2022-10-02T00:20:15.499Z,17.50
2022-10-02T00:22:17.070Z,17.50
2022-10-02T00:24:21.163Z,17.40
2022-10-02T00:26:25.416Z,17.40
2022-10-02T00:28:39.710Z,17.40
2022-10-02T00:31:04.334Z,17.50
2022-10-02T00:33:05.926Z,17.50
2022-10-02T00:35:17.066Z,17.50
2022-10-02T00:37:34.070Z,17.50
2022-10-02T00:39:46.358Z,17.50
2022-10-02T00:41:48.193Z,17.40
2022-10-02T00:44:08.407Z,17.50
2022-10-02T00:46:30.203Z,17.50
2022-10-02T00:48:34.629Z,17.40
2022-10-02T00:50:52.277Z,17.40
2022-10-02T00:52:53.855Z,17.40
2022-10-02T00:55:14.430Z,17.50
2022-10-02T00:57:38.386Z,17.50
2022-10-02T00:59:45.401Z,17.50
2022-10-02T01:01:46.991Z,17.50
2022-10-02T01:03:56.395Z,17.50
2022-10-02T01:05:58.006Z,17.50
2022-10-02T01:08:00.765Z,17.50
2022-10-02T01:10:02.723Z,17.50
2022-10-02T01:12:04.980Z,17.50
2022-10-02T01:14:06.610Z,17.40
2022-10-02T01:16:11.398Z,17.50
2022-10-02T01:18:13.961Z,17.40
2022-10-02T01:20:17.663Z,17.50
2022-10-02T01:22:23.794Z,17.50
2022-10-02T01:24:29.114Z,17.40
2022-10-02T01:26:31.512Z,17.50
2022-10-02T01:28:33.206Z,17.40
2022-10-02T01:30:35.911Z,17.50
2022-10-02T01:32:42.599Z,17.50
2022-10-02T01:34:44.392Z,17.40
2022-10-02T01:36:45.982Z,17.50
2022-10-02T01:38:48.511Z,17.50
2022-10-02T01:40:50.348Z,17.50
2022-10-02T01:42:52.478Z,17.50
2022-10-02T01:44:54.051Z,17.40
2022-10-02T01:47:07.735Z,17.40
2022-10-02T01:49:23.505Z,17.40
2022-10-02T01:51:44.551Z,17.40
2022-10-02T01:53:51.657Z,17.40
2022-10-02T01:56:03.447Z,17.40
2022-10-02T01:58:23.956Z,17.40
2022-10-02T02:00:26.737Z,17.40
2022-10-02T02:02:46.575Z,17.50
2022-10-02T02:04:51.237Z,17.40
2022-10-02T02:06:57.143Z,17.40
2022-10-02T02:09:02.128Z,17.40
2022-10-02T02:11:09.857Z,17.40
2022-10-02T02:13:11.432Z,17.40
2022-10-02T02:15:12.984Z,17.40
2022-10-02T02:17:16.824Z,17.40
2022-10-02T02:19:18.439Z,17.40
2022-10-02T02:21:24.737Z,17.40
2022-10-02T02:23:27.992Z,17.50
2022-10-02T02:25:31.965Z,17.50
2022-10-02T02:27:37.657Z,17.50
2022-10-02T02:29:40.953Z,17.40
2022-10-02T02:31:47.320Z,17.50
2022-10-02T02:33:51.267Z,17.40
2022-10-02T02:35:58.357Z,17.50
2022-10-02T02:38:03.915Z,17.50
2022-10-02T02:40:07.586Z,17.50
2022-10-02T02:42:10.553Z,17.40
2022-10-02T02:44:18.715Z,17.50
2022-10-02T02:46:26.851Z,17.40
2022-10-02T02:48:34.833Z,17.50
2022-10-02T02:50:38.897Z,17.50
2022-10-02T02:52:55.550Z,17.40
2022-10-02T02:55:06.131Z,17.50
2022-10-02T02:57:08.929Z,17.40
2022-10-02T02:59:11.853Z,17.50
2022-10-02T03:01:13.541Z,17.50
2022-10-02T03:03:15.312Z,17.50
2022-10-02T03:05:18.401Z,17.50
2022-10-02T03:07:20.215Z,17.50
2022-10-02T03:09:22.201Z,17.50
2022-10-02T03:11:59.621Z,17.50
2022-10-02T03:14:25.372Z,17.40
2022-10-02T03:16:29.819Z,17.40
2022-10-02T03:18:40.724Z,17.50
2022-10-02T03:20:52.754Z,17.40
2022-10-02T03:22:54.315Z,17.40
2022-10-02T03:25:14.094Z,17.40
2022-10-02T03:27:19.935Z,17.40
2022-10-02T03:29:36.608Z,17.40
2022-10-02T03:31:38.942Z,17.40
2022-10-02T03:33:40.922Z,17.40
2022-10-02T03:35:42.874Z,17.40
2022-10-02T03:37:45.757Z,17.40
2022-10-02T03:39:49.012Z,17.40
2022-10-02T03:41:50.727Z,17.40
2022-10-02T03:43:52.344Z,17.40
2022-10-02T03:45:54.142Z,17.40
2022-10-02T03:47:55.779Z,17.40
2022-10-02T03:49:57.367Z,17.40
2022-10-02T03:51:58.959Z,17.40
2022-10-02T03:54:00.578Z,17.40
2022-10-02T03:56:07.724Z,17.40
2022-10-02T03:58:14.323Z,17.40
2022-10-02T04:00:21.861Z,17.40
2022-10-02T04:02:29.817Z,17.40
2022-10-02T04:04:38.394Z,17.40
2022-10-02T04:06:47.766Z,17.30
2022-10-02T04:09:02.758Z,17.40
2022-10-02T04:11:25.913Z,17.30
2022-10-02T04:13:32.079Z,17.30
2022-10-02T04:15:45.168Z,17.40
2022-10-02T04:17:49.957Z,17.40
2022-10-02T04:19:54.630Z,17.40
2022-10-02T04:21:59.147Z,17.30
2022-10-02T04:24:27.017Z,17.30
2022-10-02T04:26:30.797Z,17.30
2022-10-02T04:28:37.182Z,17.30
2022-10-02T04:30:38.743Z,17.30
2022-10-02T04:32:40.552Z,17.30
2022-10-02T04:34:42.389Z,17.30
2022-10-02T04:36:59.551Z,17.30
2022-10-02T04:39:01.112Z,17.30
2022-10-02T04:41:05.572Z,17.30
2022-10-02T04:43:10.217Z,17.30
2022-10-02T04:45:11.837Z,17.30
2022-10-02T04:47:19.543Z,17.30
2022-10-02T04:49:24.374Z,17.30
2022-10-02T04:51:44.801Z,17.30
2022-10-02T04:53:49.481Z,17.30
2022-10-02T04:56:09.782Z,17.20
2022-10-02T04:58:14.199Z,17.20
2022-10-02T05:00:23.129Z,17.20
2022-10-02T05:02:57.214Z,17.20
2022-10-02T05:05:16.935Z,17.20
2022-10-02T05:07:36.945Z,17.20
2022-10-02T05:09:58.249Z,17.20
2022-10-02T05:12:15.381Z,17.20
2022-10-02T05:14:29.319Z,17.20
2022-10-02T05:16:37.494Z,17.30
2022-10-02T05:18:48.776Z,17.20
2022-10-02T05:21:08.775Z,17.20
2022-10-02T05:23:33.633Z,17.20
2022-10-02T05:25:35.531Z,17.20
2022-10-02T05:27:39.740Z,17.20
2022-10-02T05:29:50.596Z,17.20
2022-10-02T05:31:52.248Z,17.20
2022-10-02T05:34:05.899Z,17.20
2022-10-02T05:36:15.896Z,17.20
2022-10-02T05:38:26.757Z,17.20
2022-10-02T05:40:28.338Z,17.20
2022-10-02T05:42:39.996Z,17.20
2022-10-02T05:44:50.607Z,17.20
2022-10-02T05:46:58.156Z,17.20
2022-10-02T05:49:02.626Z,17.20
2022-10-02T05:51:15.515Z,17.20
2022-10-02T05:53:38.598Z,17.20
2022-10-02T05:55:58.969Z,17.20
2022-10-02T05:58:06.601Z,17.20
2022-10-02T06:00:14.278Z,17.20
2022-10-02T06:02:20.339Z,17.20
2022-10-02T06:04:27.375Z,17.20
2022-10-02T06:06:40.169Z,17.20
2022-10-02T06:08:48.242Z,17.30
2022-10-02T06:10:55.870Z,17.20
2022-10-02T06:13:02.137Z,17.20
2022-10-02T06:15:24.061Z,17.30
2022-10-02T06:17:28.482Z,17.20
2022-10-02T06:19:48.785Z,17.30
2022-10-02T06:21:56.437Z,17.30
2022-10-02T06:23:59.964Z,17.30
2022-10-02T06:26:04.721Z,17.30
2022-10-02T06:28:17.480Z,17.20
2022-10-02T06:30:19.326Z,17.30
2022-10-02T06:32:24.623Z,17.30
2022-10-02T06:34:26.302Z,17.30
2022-10-02T06:36:27.882Z,17.30
2022-10-02T06:38:35.496Z,17.20
2022-10-02T06:40:37.195Z,17.20
2022-10-02T06:42:38.783Z,17.20
2022-10-02T06:44:56.951Z,17.30
2022-10-02T06:47:17.149Z,17.20
2022-10-02T06:49:28.341Z,17.20
2022-10-02T06:51:48.915Z,17.20
2022-10-02T06:54:02.693Z,17.20
2022-10-02T06:56:29.701Z,17.20
2022-10-02T06:58:37.542Z,17.20
2022-10-02T07:00:49.746Z,17.20
2022-10-02T07:02:51.536Z,17.20
2022-10-02T07:05:12.068Z,17.20
2022-10-02T07:07:24.615Z,17.20
2022-10-02T07:09:28.983Z,17.20
2022-10-02T07:11:34.816Z,17.20
2022-10-02T07:13:53.351Z,17.20
2022-10-02T07:16:06.474Z,17.20
2022-10-02T07:18:26.989Z,17.20
2022-10-02T07:20:34.086Z,17.20
2022-10-02T07:22:51.287Z,17.20
2022-10-02T07:24:58.169Z,17.20
2022-10-02T07:27:12.003Z,17.20
2022-10-02T07:29:16.626Z,17.20
2022-10-02T07:31:29.442Z,17.20
2022-10-02T07:33:44.604Z,17.20
2022-10-02T07:36:03.389Z,17.20
2022-10-02T07:38:13.900Z,17.20
2022-10-02T07:40:28.887Z,17.20
2022-10-02T07:42:49.109Z,17.20
2022-10-02T07:45:09.942Z,17.20
2022-10-02T07:47:14.837Z,17.20
2022-10-02T07:49:23.727Z,17.20
2022-10-02T07:51:47.241Z,17.20
2022-10-02T07:53:51.970Z,17.20
2022-10-02T07:55:54.748Z,17.20
2022-10-02T07:58:02.579Z,17.20
2022-10-02T08:00:12.976Z,17.30
2022-10-02T08:02:33.357Z,17.30
2022-10-02T08:04:37.530Z,17.20
2022-10-02T08:06:39.739Z,17.30
2022-10-02T08:08:49.089Z,17.30
2022-10-02T08:10:56.641Z,17.30
2022-10-02T08:13:20.482Z,17.30
2022-10-02T08:15:23.702Z,17.30
2022-10-02T08:17:44.332Z,17.40
2022-10-02T08:19:48.183Z,17.30
2022-10-02T08:21:55.166Z,17.30
2022-10-02T08:24:03.028Z,17.40
2022-10-02T08:26:07.742Z,17.40
2022-10-02T08:28:19.542Z,17.40
2022-10-02T08:30:21.239Z,17.40
2022-10-02T08:32:31.230Z,17.50
2022-10-02T08:34:35.489Z,17.40
2022-10-02T08:36:55.235Z,17.50
2022-10-02T08:39:03.004Z,17.40
2022-10-02T08:41:23.223Z,17.50
2022-10-02T08:43:44.970Z,17.50
2022-10-02T08:46:06.610Z,17.50
2022-10-02T08:48:11.382Z,17.50
2022-10-02T08:50:31.482Z,17.60
2022-10-02T08:52:42.375Z,17.50
2022-10-02T08:54:54.382Z,17.50
2022-10-02T08:57:14.590Z,17.60
2022-10-02T08:59:34.441Z,17.60
2022-10-02T09:02:09.246Z,17.60
2022-10-02T09:04:13.706Z,17.60
2022-10-02T09:06:22.294Z,17.60
2022-10-02T09:08:42.632Z,17.70
2022-10-02T09:10:53.385Z,17.60
2022-10-02T09:13:11.060Z,17.60
2022-10-02T09:15:30.927Z,17.70
2022-10-02T09:17:35.665Z,17.60
2022-10-02T09:20:01.021Z,17.70
2022-10-02T09:22:14.905Z,17.70
2022-10-02T09:24:35.303Z,17.70
2022-10-02T09:26:52.246Z,17.70
2022-10-02T09:29:06.351Z,17.70
2022-10-02T09:31:14.766Z,17.70
2022-10-02T09:33:35.273Z,17.70
2022-10-02T09:35:39.939Z,17.80
2022-10-02T09:38:08.287Z,17.80
2022-10-02T09:40:29.396Z,17.80
2022-10-02T09:42:43.342Z,17.80
2022-10-02T09:45:00.966Z,17.80
2022-10-02T09:47:06.091Z,17.80
2022-10-02T09:49:17.447Z,17.80
2022-10-02T09:51:22.296Z,17.90
2022-10-02T09:53:47.013Z,17.80
2022-10-02T09:56:07.058Z,17.80
2022-10-02T09:58:32.082Z,17.80
2022-10-02T10:00:52.628Z,17.90
2022-10-02T10:03:13.262Z,17.90
2022-10-02T10:05:23.916Z,17.90
2022-10-02T10:07:37.857Z,17.90
2022-10-02T10:09:58.468Z,17.90
2022-10-02T10:12:09.445Z,17.90
2022-10-02T10:14:37.500Z,17.90
2022-10-02T10:16:39.160Z,17.90
2022-10-02T10:18:49.961Z,17.90
2022-10-02T10:20:53.209Z,17.90
2022-10-02T10:22:57.753Z,17.90
2022-10-02T10:25:05.535Z,17.90
2022-10-02T10:27:13.309Z,18.00
2022-10-02T10:29:33.750Z,18.00
2022-10-02T10:31:54.356Z,17.90
2022-10-02T10:34:14.605Z,17.90
2022-10-02T10:36:46.753Z,17.90
2022-10-02T10:38:52.120Z,18.00
2022-10-02T10:40:53.851Z,18.00
2022-10-02T10:43:07.507Z,17.90
2022-10-02T10:45:12.865Z,18.00
2022-10-02T10:47:25.054Z,18.00
2022-10-02T10:49:30.333Z,18.00
2022-10-02T10:51:45.728Z,18.00
2022-10-02T10:54:10.078Z,18.00
2022-10-02T10:56:34.184Z,18.00
2022-10-02T10:58:54.130Z,18.00
2022-10-02T11:01:05.205Z,18.00
2022-10-02T11:03:27.727Z,18.10
2022-10-02T11:05:48.027Z,18.00
2022-10-02T11:07:50.410Z,18.10
2022-10-02T11:09:55.608Z,18.10
2022-10-02T11:12:00.062Z,18.10
2022-10-02T11:14:07.711Z,18.10
2022-10-02T11:16:13.206Z,18.10
2022-10-02T11:18:17.990Z,18.10
2022-10-02T11:20:20.278Z,18.10
2022-10-02T11:22:30.872Z,18.10
2022-10-02T11:24:44.655Z,18.10
2022-10-02T11:27:04.755Z,18.20
2022-10-02T11:29:06.372Z,18.20
2022-10-02T11:31:17.331Z,18.20
2022-10-02T11:33:48.939Z,18.20
2022-10-02T11:35:56.463Z,18.20
2022-10-02T11:38:24.533Z,18.20
2022-10-02T11:40:44.882Z,18.30
2022-10-02T11:42:46.536Z,18.20
2022-10-02T11:44:57.219Z,18.30
2022-10-02T11:47:12.498Z,18.30
2022-10-02T11:49:26.261Z,18.30
2022-10-02T11:51:30.942Z,18.30
2022-10-02T11:53:51.084Z,18.30
2022-10-02T11:56:14.220Z,18.30
2022-10-02T11:58:18.721Z,18.30
2022-10-02T12:00:45.300Z,18.30
2022-10-02T12:02:47.085Z,18.30
2022-10-02T12:05:09.165Z,18.30
2022-10-02T12:07:40.348Z,18.30
2022-10-02T12:09:42.231Z,18.30
2022-10-02T12:11:43.954Z,18.30
2022-10-02T12:14:04.300Z,18.30
2022-10-02T12:16:08.978Z,18.30
2022-10-02T12:18:21.953Z,18.30
2022-10-02T12:20:50.404Z,18.20
2022-10-02T12:23:23.856Z,18.30
2022-10-02T12:26:01.723Z,18.20
2022-10-02T12:28:12.225Z,18.20
2022-10-02T12:30:16.680Z,18.20
2022-10-02T12:32:37.448Z,18.30
2022-10-02T12:34:58.026Z,18.30
2022-10-02T12:37:08.022Z,18.30
2022-10-02T12:39:22.256Z,18.20
2022-10-02T12:41:34.423Z,18.20
2022-10-02T12:43:36.307Z,18.20
2022-10-02T12:46:13.174Z,18.20
2022-10-02T12:48:14.850Z,18.20
2022-10-02T12:50:23.256Z,18.30
2022-10-02T12:52:30.777Z,18.20
2022-10-02T12:54:59.793Z,18.30
2022-10-02T12:57:10.567Z,18.30
2022-10-02T12:59:18.965Z,18.30
2022-10-02T13:01:39.781Z,18.30
2022-10-02T13:03:55.254Z,18.30
2022-10-02T13:06:10.764Z,18.30
2022-10-02T13:08:28.096Z,18.30
2022-10-02T13:10:49.967Z,18.30
2022-10-02T13:13:10.376Z,18.30
2022-10-02T13:15:32.853Z,18.40
2022-10-02T13:18:03.963Z,18.30
2022-10-02T13:20:11.637Z,18.30
2022-10-02T13:22:26.729Z,18.30
2022-10-02T13:24:47.239Z,18.30
2022-10-02T13:26:49.392Z,18.30
2022-10-02T13:29:04.473Z,18.30
2022-10-02T13:31:25.110Z,18.40
2022-10-02T13:33:34.330Z,18.30
2022-10-02T13:35:38.753Z,18.40
2022-10-02T13:37:46.391Z,18.40
2022-10-02T13:39:54.833Z,18.40
2022-10-02T13:42:08.750Z,18.40
2022-10-02T13:44:29.248Z,18.40
2022-10-02T13:46:44.910Z,18.40
2022-10-02T13:48:46.583Z,18.40
2022-10-02T13:51:06.768Z,18.40
2022-10-02T13:53:14.928Z,18.40
2022-10-02T13:55:24.540Z,18.40
2022-10-02T13:57:29.214Z,18.40
2022-10-02T13:59:43.114Z,18.40
2022-10-02T14:02:00.029Z,18.40
2022-10-02T14:04:14.167Z,18.40
2022-10-02T14:06:25.542Z,18.40
2022-10-02T14:08:50.308Z,18.40
2022-10-02T14:11:10.653Z,18.40
2022-10-02T14:13:12.349Z,18.40
2022-10-02T14:15:26.509Z,18.40
2022-10-02T14:17:45.156Z,18.30
2022-10-02T14:19:49.594Z,18.40
2022-10-02T14:21:51.176Z,18.40
2022-10-02T14:24:11.869Z,18.40
2022-10-02T14:26:19.941Z,18.30
2022-10-02T14:28:24.708Z,18.30
2022-10-02T14:30:26.359Z,18.40
2022-10-02T14:32:40.041Z,18.30
2022-10-02T14:34:54.667Z,18.30
2022-10-02T14:37:16.685Z,18.30
2022-10-02T14:39:18.287Z,18.30
2022-10-02T14:41:19.952Z,18.40
2022-10-02T14:43:33.474Z,18.30
2022-10-02T14:45:56.458Z,18.30
2022-10-02T14:48:00.903Z,18.40
2022-10-02T14:50:14.397Z,18.40
2022-10-02T14:52:18.836Z,18.30
2022-10-02T14:54:20.493Z,18.30
2022-10-02T14:56:28.412Z,18.30
2022-10-02T14:58:48.797Z,18.40
2022-10-02T15:01:02.428Z,18.30
2022-10-02T15:03:16.487Z,18.30
2022-10-02T15:05:18.188Z,18.40
2022-10-02T15:07:30.299Z,18.40
2022-10-02T15:09:41.026Z,18.40
2022-10-02T15:11:42.689Z,18.40
2022-10-02T15:13:46.906Z,18.40
2022-10-02T15:16:12.063Z,18.40
2022-10-02T15:18:38.467Z,18.40
2022-10-02T15:21:01.733Z,18.40
2022-10-02T15:23:06.728Z,18.30
2022-10-02T15:25:31.837Z,18.40
2022-10-02T15:27:39.748Z,18.30
2022-10-02T15:30:03.587Z,18.40
2022-10-02T15:32:08.133Z,18.30
2022-10-02T15:34:30.400Z,18.30
2022-10-02T15:36:40.428Z,18.40
2022-10-02T15:39:00.528Z,18.30
2022-10-02T15:41:18.582Z,18.30
2022-10-02T15:43:33.666Z,18.30
2022-10-02T15:45:41.054Z,18.30
2022-10-02T15:48:01.148Z,18.30
2022-10-02T15:50:20.999Z,18.30
2022-10-02T15:52:33.089Z,18.30
2022-10-02T15:54:41.840Z,18.30
2022-10-02T15:56:47.179Z,18.30
2022-10-02T15:58:54.716Z,18.30
2022-10-02T16:01:02.652Z,18.30
2022-10-02T16:03:21.358Z,18.20
2022-10-02T16:05:23.087Z,18.30
2022-10-02T16:07:36.411Z,18.30
2022-10-02T16:09:38.535Z,18.20
2022-10-02T16:11:51.577Z,18.30
2022-10-02T16:14:00.142Z,18.30
2022-10-02T16:16:16.931Z,18.30
2022-10-02T16:18:29.625Z,18.30
2022-10-02T16:20:43.284Z,18.20
2022-10-02T16:22:48.605Z,18.20
2022-10-02T16:24:57.943Z,18.20
2022-10-02T16:27:09.309Z,18.20
2022-10-02T16:29:26.402Z,18.20
2022-10-02T16:31:43.618Z,18.20
2022-10-02T16:33:55.003Z,18.20
2022-10-02T16:36:05.702Z,18.20
2022-10-02T16:38:16.740Z,18.10
2022-10-02T16:40:25.793Z,18.10
2022-10-02T16:42:45.638Z,18.10
2022-10-02T16:44:47.385Z,18.10
2022-10-02T16:46:55.307Z,18.10
2022-10-02T16:49:15.483Z,18.10
2022-10-02T16:51:17.094Z,18.10
2022-10-02T16:53:25.467Z,18.10
2022-10-02T16:55:27.174Z,18.10
2022-10-02T16:57:35.168Z,18.10
2022-10-02T16:59:43.074Z,18.10
2022-10-02T17:02:12.758Z,18.10
2022-10-02T17:04:27.863Z,18.10
2022-10-02T17:06:32.732Z,18.00
2022-10-02T17:08:34.357Z,18.00
2022-10-02T17:10:55.495Z,18.00
2022-10-02T17:13:00.864Z,18.00
2022-10-02T17:15:16.246Z,18.00
2022-10-02T17:17:44.368Z,18.00
2022-10-02T17:19:49.155Z,18.00
2022-10-02T17:22:13.869Z,18.00
2022-10-02T17:24:15.590Z,18.00
2022-10-02T17:26:26.111Z,18.00
2022-10-02T17:28:37.264Z,18.00
2022-10-02T17:30:54.047Z,18.00
2022-10-02T17:33:11.488Z,18.00
2022-10-02T17:35:24.718Z,17.90
2022-10-02T17:37:44.492Z,17.90
2022-10-02T17:39:52.005Z,18.00
2022-10-02T17:41:53.690Z,17.90
2022-10-02T17:44:01.865Z,17.90
2022-10-02T17:46:11.061Z,17.90
2022-10-02T17:48:15.191Z,17.90
2022-10-02T17:50:19.795Z,17.90
2022-10-02T17:52:57.386Z,18.00
2022-10-02T17:55:33.039Z,17.90
2022-10-02T17:57:42.943Z,17.90
2022-10-02T17:59:48.305Z,17.90
2022-10-02T18:02:02.810Z,17.90
2022-10-02T18:04:23.108Z,17.90
2022-10-02T18:06:41.915Z,17.90
2022-10-02T18:08:46.989Z,17.90
2022-10-02T18:10:48.776Z,17.90
2022-10-02T18:12:51.776Z,17.90
2022-10-02T18:14:57.290Z,17.90
2022-10-02T18:17:02.021Z,17.90
2022-10-02T18:19:22.768Z,17.90
2022-10-02T18:21:32.944Z,17.90
2022-10-02T18:23:53.492Z,17.90
2022-10-02T18:26:27.735Z,17.90
2022-10-02T18:28:43.441Z,17.90
2022-10-02T18:30:49.434Z,17.90
2022-10-02T18:33:00.375Z,17.90
2022-10-02T18:35:15.423Z,17.80
2022-10-02T18:37:36.631Z,17.90
2022-10-02T18:39:58.829Z,17.80
2022-10-02T18:42:23.442Z,17.90
2022-10-02T18:44:35.081Z,17.80
2022-10-02T18:46:37.401Z,17.90
2022-10-02T18:48:48.256Z,17.90
2022-10-02T18:50:50.006Z,17.90
2022-10-02T18:52:57.467Z,17.80
2022-10-02T18:55:18.556Z,17.80
2022-10-02T18:57:29.524Z,17.80
2022-10-02T18:59:49.335Z,17.80
2022-10-02T19:01:54.822Z,17.80
2022-10-02T19:03:56.507Z,17.80
2022-10-02T19:06:17.124Z,17.80
2022-10-02T19:08:21.681Z,17.80
2022-10-02T19:10:27.065Z,17.80
2022-10-02T19:12:31.024Z,17.80
2022-10-02T19:14:35.195Z,17.80
2022-10-02T19:16:37.142Z,17.80
2022-10-02T19:18:39.644Z,17.80
2022-10-02T19:20:53.181Z,17.80
2022-10-02T19:22:55.221Z,17.80
2022-10-02T19:25:03.891Z,17.80
2022-10-02T19:27:09.929Z,17.70
2022-10-02T19:29:25.673Z,17.70
2022-10-02T19:31:29.192Z,17.70
2022-10-02T19:33:42.010Z,17.70
2022-10-02T19:35:44.098Z,17.70
2022-10-02T19:37:47.234Z,17.70
2022-10-02T19:39:52.943Z,17.70
2022-10-02T19:41:57.509Z,17.70
2022-10-02T19:44:02.995Z,17.60
2022-10-02T19:46:06.201Z,17.60
2022-10-02T19:48:17.057Z,17.60
2022-10-02T19:50:20.336Z,17.60
2022-10-02T19:52:30.315Z,17.60
2022-10-02T19:54:40.770Z,17.60
2022-10-02T19:56:43.696Z,17.60
2022-10-02T19:58:53.445Z,17.60
2022-10-02T20:00:55.736Z,17.50
2022-10-02T20:02:59.610Z,17.50
2022-10-02T20:05:06.549Z,17.50
2022-10-02T20:07:13.214Z,17.60
2022-10-02T20:09:17.699Z,17.40
2022-10-02T20:11:19.455Z,17.50
2022-10-02T20:13:23.517Z,17.40
2022-10-02T20:15:58.754Z,17.40
2022-10-02T20:18:00.463Z,17.40
2022-10-02T20:20:03.554Z,17.40
2022-10-02T20:22:11.110Z,17.40
2022-10-02T20:24:31.732Z,17.40
2022-10-02T20:26:37.667Z,17.40
2022-10-02T20:28:42.319Z,17.40
2022-10-02T20:30:49.549Z,17.30
2022-10-02T20:32:51.271Z,17.30
2022-10-02T20:34:55.762Z,17.30
2022-10-02T20:37:02.435Z,17.30
2022-10-02T20:39:07.120Z,17.30
2022-10-02T20:41:14.449Z,17.30
2022-10-02T20:43:21.503Z,17.20
2022-10-02T20:45:29.217Z,17.20
2022-10-02T20:47:39.580Z,17.20
2022-10-02T20:49:41.295Z,17.20
2022-10-02T20:52:01.811Z,17.20
2022-10-02T20:54:09.849Z,17.20
2022-10-02T20:56:14.797Z,17.20
2022-10-02T20:58:34.944Z,17.20
2022-10-02T21:00:50.538Z,17.20
2022-10-02T21:03:11.199Z,17.20
2022-10-02T21:05:32.136Z,17.20
2022-10-02T21:07:39.665Z,17.20
2022-10-02T21:09:52.540Z,17.20
2022-10-02T21:11:56.388Z,17.10
2022-10-02T21:14:09.603Z,17.20
2022-10-02T21:16:21.142Z,17.10
2022-10-02T21:18:25.673Z,17.10
2022-10-02T21:20:50.885Z,17.10
2022-10-02T21:23:11.846Z,17.10
2022-10-02T21:25:18.066Z,17.10
2022-10-02T21:27:26.983Z,17.10
2022-10-02T21:29:47.319Z,17.00
2022-10-02T21:32:00.723Z,17.00
2022-10-02T21:34:11.770Z,17.00
2022-10-02T21:36:14.578Z,17.00
2022-10-02T21:38:37.441Z,17.00
2022-10-02T21:40:42.437Z,17.00
2022-10-02T21:43:06.855Z,17.00
2022-10-02T21:45:11.274Z,17.00
2022-10-02T21:47:25.693Z,17.00
2022-10-02T21:49:37.812Z,17.00
2022-10-02T21:51:51.719Z,17.00
2022-10-02T21:53:58.733Z,16.90
2022-10-02T21:56:03.357Z,16.90
2022-10-02T21:58:23.907Z,16.90
2022-10-02T22:00:26.764Z,16.90
2022-10-02T22:02:37.172Z,16.90
2022-10-02T22:04:41.734Z,16.90
2022-10-02T22:06:57.163Z,16.90
2022-10-02T22:09:17.589Z,16.90
2022-10-02T22:11:46.035Z,16.90
2022-10-02T22:13:48.511Z,16.90
2022-10-02T22:15:56.019Z,16.90
2022-10-02T22:18:16.576Z,16.80
2022-10-02T22:20:25.865Z,16.80
2022-10-02T22:22:46.143Z,16.80
2022-10-02T22:24:47.773Z,16.80
2022-10-02T22:26:52.304Z,16.80
2022-10-02T22:29:12.554Z,16.80
2022-10-02T22:31:32.523Z,16.80
2022-10-02T22:33:44.225Z,16.70
2022-10-02T22:35:48.671Z,16.80
2022-10-02T22:37:59.675Z,16.70
2022-10-02T22:40:04.910Z,16.70
2022-10-02T22:42:17.094Z,16.70
2022-10-02T22:44:18.727Z,16.70
2022-10-02T22:46:20.427Z,16.70
2022-10-02T22:48:33.139Z,16.70
2022-10-02T22:50:50.286Z,16.70
2022-10-02T22:52:54.868Z,16.70
2022-10-02T22:54:59.706Z,16.70
2022-10-02T22:57:01.381Z,16.70
2022-10-02T22:59:11.820Z,16.70
2022-10-02T23:01:21.150Z,16.70
2022-10-02T23:03:31.299Z,16.70
2022-10-02T23:05:43.633Z,16.70
2022-10-02T23:07:47.524Z,16.70
2022-10-02T23:09:57.655Z,16.70
2022-10-02T23:12:17.959Z,16.70
2022-10-02T23:14:26.416Z,16.70
2022-10-02T23:16:49.032Z,16.70
2022-10-02T23:19:09.334Z,16.70
2022-10-02T23:21:23.100Z,16.70
2022-10-02T23:23:30.181Z,16.70
2022-10-02T23:25:44.975Z,16.60
2022-10-02T23:27:50.272Z,16.60
2022-10-02T23:30:11.476Z,16.60
2022-10-02T23:32:15.843Z,16.60
2022-10-02T23:34:25.358Z,16.70
2022-10-02T23:36:31.353Z,16.60
2022-10-02T23:38:44.532Z,16.60
2022-10-02T23:41:23.600Z,16.60
2022-10-02T23:43:29.978Z,16.60
2022-10-02T23:45:52.201Z,16.60
2022-10-02T23:47:54.746Z,16.60
2022-10-02T23:49:57.372Z,16.60
2022-10-02T23:52:01.879Z,16.60
2022-10-02T23:54:03.499Z,16.60
2022-10-02T23:56:23.936Z,16.60
2022-10-02T23:58:32.520Z,16.60
